createdAt,value
2023-03-13T17:18:40.278Z,33.40
2023-03-13T17:21:12.382Z,32.00
2023-03-13T17:23:38.980Z,32.70
2023-03-13T17:26:15.136Z,32.80
2023-03-13T17:28:42.657Z,32.90
2023-03-13T17:31:12.477Z,33.40
2023-03-13T17:33:40.718Z,33.00
2023-03-13T17:36:16.004Z,33.30
2023-03-13T17:38:43.051Z,33.20
2023-03-13T17:41:12.173Z,33.30
2023-03-13T17:43:39.557Z,33.30
2023-03-13T17:46:15.819Z,33.20
2023-03-13T17:48:42.505Z,33.10
2023-03-13T17:51:18.149Z,33.10
2023-03-13T17:53:44.878Z,32.90
2023-03-13T17:56:18.948Z,33.20
2023-03-13T17:58:46.860Z,33.20
2023-03-13T18:01:14.666Z,33.10
2023-03-13T18:03:42.265Z,33.10
2023-03-13T18:06:27.544Z,33.10
2023-03-13T18:08:56.590Z,33.30
2023-03-13T18:11:25.176Z,33.50
2023-03-13T18:13:52.578Z,33.30
2023-03-13T18:16:30.326Z,33.70
2023-03-13T18:18:57.283Z,33.80
2023-03-13T18:21:24.254Z,34.00
2023-03-13T18:23:52.063Z,33.80
2023-03-13T18:26:32.528Z,33.80
2023-03-13T18:29:00.700Z,33.50
2023-03-13T18:31:36.672Z,33.20
2023-03-13T18:34:04.749Z,33.50
2023-03-13T18:36:31.924Z,33.30
2023-03-13T18:38:59.068Z,33.20
2023-03-13T18:41:26.100Z,33.50
2023-03-13T18:43:52.672Z,33.30
2023-03-13T18:46:26.640Z,33.20
2023-03-13T18:48:54.056Z,33.30
2023-03-13T18:51:24.722Z,33.40
2023-03-13T18:53:52.617Z,33.70
2023-03-13T18:56:23.936Z,34.00
2023-03-13T18:58:52.268Z,34.40
2023-03-13T19:01:21.672Z,34.40
2023-03-13T19:03:48.965Z,33.90
2023-03-13T19:06:27.590Z,34.10
2023-03-13T19:08:59.436Z,34.00
2023-03-13T19:11:29.045Z,33.80
2023-03-13T19:13:56.505Z,34.10
2023-03-13T19:16:35.071Z,33.90
2023-03-13T19:19:02.354Z,34.10
2023-03-13T19:21:30.836Z,34.30
2023-03-13T19:23:57.796Z,34.10
2023-03-13T19:26:39.336Z,33.80
2023-03-13T19:29:15.665Z,34.10
2023-03-13T19:31:42.591Z,34.10
2023-03-13T19:34:09.728Z,34.10
2023-03-13T19:36:39.653Z,34.00
2023-03-13T19:39:14.022Z,34.00
2023-03-13T19:41:40.884Z,33.90
2023-03-13T19:44:07.751Z,33.60
2023-03-13T19:46:35.489Z,33.70
2023-03-13T19:49:02.282Z,34.10
2023-03-13T19:51:30.248Z,34.40
2023-03-13T19:53:57.299Z,33.80
2023-03-13T19:56:28.470Z,33.90
2023-03-13T19:59:06.349Z,34.00
2023-03-13T20:01:33.093Z,34.10
2023-03-13T20:03:59.697Z,33.80
2023-03-13T20:06:29.184Z,34.10
2023-03-13T20:08:57.696Z,33.30
2023-03-13T20:11:25.324Z,33.50
2023-03-13T20:13:52.154Z,33.60
2023-03-13T20:16:19.051Z,33.20
2023-03-13T20:18:48.517Z,33.50
2023-03-13T20:21:16.482Z,33.40
2023-03-13T20:23:48.545Z,33.50
2023-03-13T20:26:17.624Z,34.10
2023-03-13T20:28:48.532Z,34.00
2023-03-13T20:31:17.322Z,34.10
2023-03-13T20:33:44.006Z,34.10
2023-03-13T20:36:12.965Z,34.10
2023-03-13T20:38:41.029Z,33.60
2023-03-13T20:41:08.309Z,34.10
2023-03-13T20:43:36.831Z,33.70
2023-03-13T20:46:04.683Z,33.80
2023-03-13T20:48:31.266Z,33.60
2023-03-13T20:51:00.152Z,33.80
2023-03-13T20:53:27.506Z,34.20
2023-03-13T20:55:56.846Z,33.10
2023-03-13T20:58:24.010Z,33.10
2023-03-13T21:00:50.625Z,33.00
2023-03-13T21:03:18.744Z,33.00
2023-03-13T21:05:45.549Z,33.40
2023-03-13T21:08:12.316Z,33.10
2023-03-13T21:10:40.859Z,33.80
2023-03-13T21:13:09.181Z,33.30
2023-03-13T21:15:36.211Z,34.10
2023-03-13T21:18:04.117Z,34.10
2023-03-13T21:20:31.415Z,34.00
2023-03-13T21:22:58.012Z,34.30
2023-03-13T21:25:24.789Z,33.90
2023-03-13T21:27:51.365Z,34.10
2023-03-13T21:30:20.545Z,34.50
2023-03-13T21:32:48.468Z,34.20
2023-03-13T21:35:16.664Z,34.30
2023-03-13T21:37:43.919Z,34.30
2023-03-13T21:40:11.590Z,34.00
2023-03-13T21:42:38.251Z,34.20
2023-03-13T21:45:05.781Z,34.30
2023-03-13T21:47:36.657Z,33.90
2023-03-13T21:50:06.326Z,33.90
2023-03-13T21:52:38.038Z,34.30
2023-03-13T21:55:09.815Z,34.20
2023-03-13T21:57:36.400Z,33.70
2023-03-13T22:00:06.031Z,33.50
2023-03-13T22:02:32.594Z,33.60
2023-03-13T22:04:59.237Z,33.30
2023-03-13T22:07:25.844Z,33.60
2023-03-13T22:09:52.412Z,33.60
2023-03-13T22:12:19.108Z,33.80
2023-03-13T22:14:45.697Z,33.80
2023-03-13T22:17:19.226Z,33.70
2023-03-13T22:19:49.308Z,33.40
2023-03-13T22:22:17.092Z,33.40
2023-03-13T22:24:43.651Z,33.40
2023-03-13T22:27:10.343Z,33.30
2023-03-13T22:29:36.993Z,33.40
2023-03-13T22:32:04.352Z,33.60
2023-03-13T22:34:31.029Z,34.00
2023-03-13T22:36:57.573Z,34.20
2023-03-13T22:39:24.243Z,33.60
2023-03-13T22:41:50.905Z,33.40
2023-03-13T22:44:17.468Z,34.40
2023-03-13T22:46:44.044Z,34.40
2023-03-13T22:49:10.616Z,34.10
2023-03-13T22:51:37.198Z,34.30
2023-03-13T22:54:03.880Z,34.20
2023-03-13T22:56:30.457Z,34.20
